Strona główna
METAR-TAF:

METAR-TAF

Lotnisko :

Port lotniczy Pjongjang-Sunan

Pjongjang, Korea Północna

Szerokość geograficzna: 39-02N, Długość geograficzna: 125-47E, wysokość: 36 m

METAR: brakujący

czas: 02:42 (18:12 UTC)

Prognoza

Raport powstał 14 godziny i 2 minut temu, godzina 04:10 UTC
Prognoza ważna od 19 godzina 06 UTC do 20 godzina 06 UTC
Wiatr 6 kt od północny zachód
Widzialność 10 km lub więcej
Brak chmur poniżej 1500 m i brak chmur cumulonimbus

TAF: ZKPY 190410Z 1906/2006 32003MPS CAVOK TX19/1907Z TN03/1921Z

Obserwacja i prognoza pogody dla ponad 4000 lotnisk (raport METAR i TAF).

Dostępne stacje oznaczono żółtymi i czerwonymi punktami na mapie.

Najedź kursorem aby zobaczyć nazwę stacji.

Kliknij aby zobaczyć obserwacje i prognozy pogody.

Aby zmienić mapę: kliknij na zielony przycisk z czarnym krzyżykiem, aby powiększyć; na zielony przycisk z myślnikiem, aby pomniejszyć; na zielone strzałki, aby przejść do map sąsiednich.


METAR-TAF: